Time;durP1;ratioP1;P1;durP2;ratioP2;P2;SDS_P1;SDS_P2;PMS_P1;PMS_P2;Temp;Humidity;BMP_temperature;BMP_pressure;BME280_temperature;BME280_humidity;BME280_pressure;Samples;Min_cycle;Max_cycle;Signal;HPM_P1;HPM_P2
2023/01/25 00:00:15;;;;;;;27.05;15.15;;;;;;;;;;5067663;28;20056;-71
2023/01/25 00:02:41;;;;;;;25.85;15.82;;;;;;;;;;5063110;28;20053;-71
2023/01/25 00:05:08;;;;;;;21.35;13.63;;;;;;;;;;5065906;28;20495;-71
2023/01/25 00:07:34;;;;;;;22.80;14.57;;;;;;;;;;5073741;28;20131;-71
2023/01/25 00:10:01;;;;;;;22.27;14.55;;;;;;;;;;5065281;28;20075;-68
2023/01/25 00:12:27;;;;;;;21.58;14.10;;;;;;;;;;5078385;28;20072;-71
2023/01/25 00:14:53;;;;;;;21.20;14.30;;;;;;;;;;5084442;28;20091;-71
2023/01/25 00:17:20;;;;;;;22.38;15.35;;;;;;;;;;5086316;28;20036;-69
2023/01/25 00:19:46;;;;;;;23.05;15.10;;;;;;;;;;5085857;28;20045;-70
2023/01/25 00:22:12;;;;;;;24.05;15.48;;;;;;;;;;5076667;28;20045;-71
2023/01/25 00:24:39;;;;;;;20.33;13.70;;;;;;;;;;5064399;28;20049;-69
2023/01/25 00:27:05;;;;;;;23.40;15.43;;;;;;;;;;5086311;28;20055;-70
2023/01/25 00:29:31;;;;;;;22.65;14.52;;;;;;;;;;5072622;28;20124;-70
2023/01/25 00:32:06;;;;;;;19.98;13.85;;;;;;;;;;5065364;28;20499;-71
2023/01/25 00:34:43;;;;;;;25.10;15.13;;;;;;;;;;5064514;28;20056;-69
2023/01/25 00:37:17;;;;;;;22.77;14.73;;;;;;;;;;5085258;28;20048;-73
2023/01/25 00:39:43;;;;;;;28.98;15.30;;;;;;;;;;5085708;28;20059;-73
2023/01/25 00:42:10;;;;;;;24.73;14.98;;;;;;;;;;5085880;28;20402;-71
2023/01/25 00:44:37;;;;;;;23.95;15.13;;;;;;;;;;5085767;28;20053;-71
2023/01/25 00:47:04;;;;;;;22.15;14.55;;;;;;;;;;5077952;28;20076;-70
2023/01/25 00:49:30;;;;;;;23.17;14.23;;;;;;;;;;5077447;28;20166;-71
2023/01/25 00:51:57;;;;;;;26.75;16.10;;;;;;;;;;5081199;28;20083;-69
2023/01/25 00:54:23;;;;;;;25.95;15.48;;;;;;;;;;5085833;28;20512;-68
2023/01/25 00:56:55;;;;;;;27.15;15.27;;;;;;;;;;5085276;28;20091;-71
2023/01/25 00:59:22;;;;;;;26.73;15.95;;;;;;;;;;5085573;28;20064;-69
2023/01/25 01:01:49;;;;;;;25.17;15.18;;;;;;;;;;5074583;28;20053;-69
2023/01/25 01:04:15;;;;;;;22.08;15.77;;;;;;;;;;5070029;28;20106;-70
2023/01/25 01:06:42;;;;;;;24.27;15.23;;;;;;;;;;5084992;28;20065;-67
2023/01/25 01:09:13;;;;;;;23.67;15.50;;;;;;;;;;5084082;28;20052;-70
2023/01/25 01:11:39;;;;;;;23.85;15.13;;;;;;;;;;5079156;28;20056;-73
2023/01/25 01:14:05;;;;;;;22.75;14.15;;;;;;;;;;5059155;28;20060;-72
2023/01/25 01:16:32;;;;;;;23.83;14.25;;;;;;;;;;5066273;28;20059;-70
2023/01/25 01:18:58;;;;;;;25.83;16.45;;;;;;;;;;5076134;28;20572;-73
2023/01/25 01:21:25;;;;;;;24.33;14.93;;;;;;;;;;5064733;28;20057;-71
2023/01/25 01:23:52;;;;;;;23.67;15.50;;;;;;;;;;5064207;28;20049;-70
2023/01/25 01:26:19;;;;;;;21.60;14.85;;;;;;;;;;5052263;28;20375;-73
2023/01/25 01:28:45;;;;;;;25.73;16.20;;;;;;;;;;5085532;28;20555;-72
2023/01/25 01:31:13;;;;;;;24.83;16.27;;;;;;;;;;5085313;28;20047;-72
2023/01/25 01:33:39;;;;;;;27.15;16.60;;;;;;;;;;5078943;28;20061;-72
2023/01/25 01:36:07;;;;;;;24.80;14.38;;;;;;;;;;5075651;28;20055;-70
2023/01/25 01:38:33;;;;;;;30.63;16.00;;;;;;;;;;5081829;28;20087;-69
2023/01/25 01:40:59;;;;;;;21.45;14.18;;;;;;;;;;5085290;28;20047;-72
2023/01/25 01:43:26;;;;;;;24.63;15.75;;;;;;;;;;5083785;28;20055;-72
2023/01/25 01:45:56;;;;;;;24.73;15.50;;;;;;;;;;5084206;28;20052;-71
2023/01/25 01:48:35;;;;;;;23.83;16.20;;;;;;;;;;5065008;28;20049;-69
2023/01/25 01:51:21;;;;;;;24.60;14.98;;;;;;;;;;5063586;28;20060;-71
2023/01/25 01:54:00;;;;;;;25.85;15.98;;;;;;;;;;5056335;28;20508;-70
2023/01/25 01:56:33;;;;;;;23.88;15.05;;;;;;;;;;5067475;28;20463;-72
2023/01/25 01:59:00;;;;;;;25.08;14.57;;;;;;;;;;5077284;28;20514;-69
2023/01/25 02:01:26;;;;;;;24.90;13.75;;;;;;;;;;5064371;28;20045;-72
2023/01/25 02:03:54;;;;;;;25.67;14.85;;;;;;;;;;5066069;28;20458;-72
2023/01/25 02:06:26;;;;;;;25.30;15.27;;;;;;;;;;5067602;28;20227;-71
2023/01/25 02:08:53;;;;;;;23.40;14.85;;;;;;;;;;5067289;28;20052;-71
2023/01/25 02:11:20;;;;;;;26.45;15.40;;;;;;;;;;5071760;28;20131;-71
2023/01/25 02:13:47;;;;;;;24.45;14.35;;;;;;;;;;5051916;28;20045;-73
2023/01/25 02:16:15;;;;;;;24.60;16.60;;;;;;;;;;5067881;28;20200;-72
2023/01/25 02:18:42;;;;;;;23.10;14.95;;;;;;;;;;5047587;28;20057;-70
2023/01/25 02:21:08;;;;;;;26.95;15.15;;;;;;;;;;5047025;28;20048;-72
2023/01/25 02:23:49;;;;;;;23.88;15.35;;;;;;;;;;5047141;28;20063;-72
2023/01/25 02:26:17;;;;;;;24.77;15.50;;;;;;;;;;5062144;28;20052;-72
2023/01/25 02:28:52;;;;;;;25.15;16.17;;;;;;;;;;5088505;28;20068;-72
2023/01/25 02:31:19;;;;;;;;;;;;;;;;;;5084570;28;20121;-72
2023/01/25 02:33:45;;;;;;;22.15;14.02;;;;;;;;;;5048434;28;45740;-71
2023/01/25 02:36:20;;;;;;;25.05;15.00;;;;;;;;;;5047616;28;20466;-71
2023/01/25 02:38:51;;;;;;;20.15;13.50;;;;;;;;;;5050690;28;20061;-69
2023/01/25 02:41:24;;;;;;;24.83;15.55;;;;;;;;;;5086233;28;20175;-72
2023/01/25 02:43:51;;;;;;;22.95;14.52;;;;;;;;;;5087596;28;20053;-72
2023/01/25 02:46:17;;;;;;;22.58;14.05;;;;;;;;;;5082089;28;20519;-72
2023/01/25 02:48:43;;;;;;;23.45;14.88;;;;;;;;;;5065558;28;20471;-70
2023/01/25 02:51:10;;;;;;;23.17;13.93;;;;;;;;;;5067498;28;20852;-73
2023/01/25 02:53:36;;;;;;;21.67;14.55;;;;;;;;;;5066875;28;20053;-70
2023/01/25 02:56:03;;;;;;;23.25;14.68;;;;;;;;;;5082945;28;20103;-72
2023/01/25 02:58:29;;;;;;;26.23;15.10;;;;;;;;;;5084882;28;20060;-72
2023/01/25 03:00:56;;;;;;;24.65;14.90;;;;;;;;;;5083033;28;20045;-72
2023/01/25 03:03:23;;;;;;;26.25;14.80;;;;;;;;;;5068057;28;20045;-70
2023/01/25 03:05:49;;;;;;;26.63;15.38;;;;;;;;;;5069360;28;20163;-72
2023/01/25 03:08:15;;;;;;;28.15;16.55;;;;;;;;;;5080288;28;20059;-72
2023/01/25 03:10:42;;;;;;;26.00;15.93;;;;;;;;;;5086018;28;20510;-72
2023/01/25 03:13:08;;;;;;;26.55;15.30;;;;;;;;;;5087227;28;20052;-72
2023/01/25 03:15:34;;;;;;;23.90;15.77;;;;;;;;;;5081633;28;20049;-72
2023/01/25 03:18:01;;;;;;;23.50;15.05;;;;;;;;;;5067138;28;20045;-72
2023/01/25 03:20:29;;;;;;;27.15;15.38;;;;;;;;;;5066702;28;20073;-72
2023/01/25 03:22:56;;;;;;;23.42;14.15;;;;;;;;;;5078621;28;20063;-72
2023/01/25 03:25:22;;;;;;;24.98;15.45;;;;;;;;;;5087167;28;20793;-72
2023/01/25 03:27:48;;;;;;;28.85;14.80;;;;;;;;;;5086987;28;20060;-71
2023/01/25 03:30:14;;;;;;;27.27;16.70;;;;;;;;;;5080922;28;20491;-72
2023/01/25 03:32:41;;;;;;;25.50;16.15;;;;;;;;;;5063627;28;20144;-72
2023/01/25 03:35:07;;;;;;;27.52;16.08;;;;;;;;;;5054997;28;20132;-72
2023/01/25 03:37:34;;;;;;;26.23;15.40;;;;;;;;;;5086456;28;20997;-70
2023/01/25 03:40:00;;;;;;;28.40;17.15;;;;;;;;;;5087170;28;20052;-72
2023/01/25 03:42:27;;;;;;;29.20;16.63;;;;;;;;;;5086717;28;20055;-72
2023/01/25 03:44:53;;;;;;;28.88;16.67;;;;;;;;;;5069508;28;20049;-71
2023/01/25 03:47:19;;;;;;;27.83;15.85;;;;;;;;;;5079507;28;20056;-72
2023/01/25 03:49:46;;;;;;;28.83;16.98;;;;;;;;;;5086126;28;20053;-72
2023/01/25 03:52:12;;;;;;;28.85;16.67;;;;;;;;;;5087039;28;20048;-70
2023/01/25 03:54:39;;;;;;;27.30;16.90;;;;;;;;;;5086415;28;20051;-72
2023/01/25 03:57:05;;;;;;;26.45;16.45;;;;;;;;;;5070050;28;20052;-72
2023/01/25 03:59:31;;;;;;;29.48;17.65;;;;;;;;;;5047251;28;20056;-72
2023/01/25 04:01:57;;;;;;;27.15;16.63;;;;;;;;;;5046255;28;20053;-72
2023/01/25 04:04:24;;;;;;;26.48;17.25;;;;;;;;;;5075308;28;20082;-69
2023/01/25 04:06:50;;;;;;;26.25;16.88;;;;;;;;;;5085282;28;20041;-72
2023/01/25 04:09:16;;;;;;;27.77;16.08;;;;;;;;;;5086842;28;20490;-71
2023/01/25 04:11:43;;;;;;;27.38;16.60;;;;;;;;;;5071001;28;20462;-71
2023/01/25 04:14:09;;;;;;;31.13;17.73;;;;;;;;;;5066271;28;20049;-70
2023/01/25 04:16:35;;;;;;;26.90;16.85;;;;;;;;;;5065565;28;20049;-72
2023/01/25 04:19:02;;;;;;;29.23;17.23;;;;;;;;;;5075181;28;20099;-70
2023/01/25 04:21:28;;;;;;;29.63;16.08;;;;;;;;;;5086402;28;20510;-69
2023/01/25 04:23:55;;;;;;;28.02;16.58;;;;;;;;;;5071566;28;20053;-73
2023/01/25 04:26:21;;;;;;;26.67;15.85;;;;;;;;;;5067069;28;20051;-70
2023/01/25 04:28:47;;;;;;;26.23;15.85;;;;;;;;;;5086478;28;20056;-69
2023/01/25 04:31:14;;;;;;;33.45;17.45;;;;;;;;;;5084154;28;20053;-72
2023/01/25 04:33:40;;;;;;;30.15;17.25;;;;;;;;;;5074757;28;20581;-72
2023/01/25 04:36:06;;;;;;;33.70;19.67;;;;;;;;;;5086184;28;20048;-73
2023/01/25 04:38:33;;;;;;;30.92;17.23;;;;;;;;;;5071705;28;20041;-73
2023/01/25 04:41:00;;;;;;;32.22;17.35;;;;;;;;;;5065623;28;20087;-71
2023/01/25 04:43:26;;;;;;;32.17;18.02;;;;;;;;;;5065708;28;20052;-71
2023/01/25 04:45:52;;;;;;;31.35;17.73;;;;;;;;;;5063878;28;20511;-72
2023/01/25 04:48:19;;;;;;;31.92;18.02;;;;;;;;;;5065959;28;20057;-70
2023/01/25 04:50:45;;;;;;;29.85;17.75;;;;;;;;;;5064786;28;20049;-69
2023/01/25 04:53:12;;;;;;;33.42;18.88;;;;;;;;;;5066027;28;20107;-72
2023/01/25 04:55:38;;;;;;;31.83;18.27;;;;;;;;;;5063561;28;20053;-71
2023/01/25 04:58:04;;;;;;;32.70;18.75;;;;;;;;;;5067958;28;20076;-71
2023/01/25 05:00:31;;;;;;;37.53;19.58;;;;;;;;;;5078755;28;20052;-68
2023/01/25 05:02:57;;;;;;;32.97;18.73;;;;;;;;;;5077705;28;20065;-72
2023/01/25 05:05:24;;;;;;;33.67;19.30;;;;;;;;;;5065701;28;20518;-69
2023/01/25 05:07:50;;;;;;;33.53;18.02;;;;;;;;;;5065556;28;20056;-73
2023/01/25 05:10:16;;;;;;;33.58;18.95;;;;;;;;;;5075587;28;20056;-68
2023/01/25 05:12:43;;;;;;;28.95;16.70;;;;;;;;;;5085553;28;20507;-71
2023/01/25 05:15:09;;;;;;;34.13;19.55;;;;;;;;;;5083057;28;20126;-72
2023/01/25 05:17:36;;;;;;;34.88;19.05;;;;;;;;;;5062433;28;20052;-72
2023/01/25 05:20:03;;;;;;;39.08;20.90;;;;;;;;;;5064830;28;20045;-70
2023/01/25 05:22:29;;;;;;;33.47;19.20;;;;;;;;;;5065240;28;20140;-72
2023/01/25 05:24:57;;;;;;;35.67;19.20;;;;;;;;;;5065877;28;20048;-72
2023/01/25 05:27:24;;;;;;;36.20;20.10;;;;;;;;;;5065413;28;21014;-70
2023/01/25 05:29:50;;;;;;;36.70;18.92;;;;;;;;;;5062918;28;20056;-72
2023/01/25 05:32:18;;;;;;;31.92;18.38;;;;;;;;;;5055071;28;20050;-69
2023/01/25 05:34:45;;;;;;;32.58;19.80;;;;;;;;;;5068223;28;20063;-72
2023/01/25 05:37:13;;;;;;;32.97;18.80;;;;;;;;;;5065129;28;20049;-73
2023/01/25 05:39:39;;;;;;;36.40;20.33;;;;;;;;;;5067946;28;20053;-72
2023/01/25 05:42:12;;;;;;;36.17;18.60;;;;;;;;;;5057544;28;20042;-69
2023/01/25 05:44:39;;;;;;;39.97;22.10;;;;;;;;;;5070055;28;20055;-73
2023/01/25 05:47:05;;;;;;;37.05;20.50;;;;;;;;;;5068233;28;20065;-72
2023/01/25 05:49:32;;;;;;;37.25;19.58;;;;;;;;;;5077463;28;20059;-73
2023/01/25 05:51:58;;;;;;;38.65;20.33;;;;;;;;;;5072884;28;20107;-72
2023/01/25 05:54:24;;;;;;;35.30;19.40;;;;;;;;;;5068832;28;20094;-71
2023/01/25 05:56:51;;;;;;;35.95;20.10;;;;;;;;;;5083103;28;20052;-73
2023/01/25 05:59:17;;;;;;;32.28;20.05;;;;;;;;;;5072999;28;20059;-70
2023/01/25 06:01:43;;;;;;;36.10;19.67;;;;;;;;;;5088345;28;20048;-72
2023/01/25 06:04:13;;;;;;;42.83;21.92;;;;;;;;;;5089005;28;20052;-71
2023/01/25 06:06:39;;;;;;;41.92;21.08;;;;;;;;;;5088719;28;20699;-69
2023/01/25 06:09:05;;;;;;;37.35;20.55;;;;;;;;;;5072770;28;20052;-72
2023/01/25 06:11:31;;;;;;;39.20;20.77;;;;;;;;;;5087758;28;20049;-72
2023/01/25 06:13:58;;;;;;;39.10;19.23;;;;;;;;;;5088366;28;20052;-70
2023/01/25 06:16:24;;;;;;;38.17;20.02;;;;;;;;;;5085935;28;20520;-68
2023/01/25 06:18:50;;;;;;;35.92;20.17;;;;;;;;;;5088080;28;20059;-72
2023/01/25 06:21:17;;;;;;;35.00;19.15;;;;;;;;;;5087884;28;20048;-70
2023/01/25 06:23:43;;;;;;;35.67;20.35;;;;;;;;;;5084317;28;20056;-71
2023/01/25 06:26:11;;;;;;;37.58;19.40;;;;;;;;;;5071774;28;20048;-70
2023/01/25 06:28:38;;;;;;;34.78;19.67;;;;;;;;;;5066629;28;20052;-72
2023/01/25 06:31:05;;;;;;;34.38;19.88;;;;;;;;;;5085039;28;20103;-70
2023/01/25 06:33:32;;;;;;;36.08;19.20;;;;;;;;;;5087741;28;20400;-72
2023/01/25 06:35:59;;;;;;;37.67;19.85;;;;;;;;;;5088066;28;20044;-72
2023/01/25 06:38:25;;;;;;;36.50;19.77;;;;;;;;;;5081342;28;20049;-68
2023/01/25 06:40:51;;;;;;;40.13;20.92;;;;;;;;;;5083731;28;20049;-69
2023/01/25 06:43:18;;;;;;;38.97;20.65;;;;;;;;;;5073147;28;20048;-71
2023/01/25 06:45:44;;;;;;;35.08;19.40;;;;;;;;;;5086779;28;20153;-71
2023/01/25 06:48:10;;;;;;;36.70;20.40;;;;;;;;;;5087658;28;20141;-72
2023/01/25 06:50:39;;;;;;;39.28;19.42;;;;;;;;;;5085435;28;20053;-71
2023/01/25 06:53:05;;;;;;;36.70;18.80;;;;;;;;;;5086583;28;20513;-71
2023/01/25 06:55:31;;;;;;;38.40;21.98;;;;;;;;;;5053648;28;20061;-72
2023/01/25 06:57:58;;;;;;;38.40;20.65;;;;;;;;;;5054650;28;20063;-73
2023/01/25 07:00:25;;;;;;;39.53;20.35;;;;;;;;;;5067991;28;20054;-69
2023/01/25 07:02:52;;;;;;;36.38;20.73;;;;;;;;;;5042031;28;20045;-72
2023/01/25 07:05:18;;;;;;;40.85;21.35;;;;;;;;;;5055672;28;20041;-72
2023/01/25 07:07:45;;;;;;;40.22;21.15;;;;;;;;;;5056046;28;20063;-68
2023/01/25 07:10:12;;;;;;;40.60;21.08;;;;;;;;;;5059616;28;20048;-72
2023/01/25 07:12:38;;;;;;;38.78;21.20;;;;;;;;;;5061612;28;20057;-70
2023/01/25 07:15:05;;;;;;;42.35;22.15;;;;;;;;;;5059657;28;20053;-69
2023/01/25 07:17:32;;;;;;;47.72;23.80;;;;;;;;;;5058459;28;20055;-69
2023/01/25 07:19:59;;;;;;;42.05;21.20;;;;;;;;;;5058771;28;20048;-73
2023/01/25 07:22:25;;;;;;;39.60;21.25;;;;;;;;;;5055438;28;20517;-69
2023/01/25 07:24:52;;;;;;;41.45;22.80;;;;;;;;;;5066916;28;20527;-70
2023/01/25 07:27:19;;;;;;;39.80;20.08;;;;;;;;;;5062571;28;20586;-72
2023/01/25 07:29:45;;;;;;;38.40;21.17;;;;;;;;;;5052698;28;20057;-72
2023/01/25 07:32:13;;;;;;;37.22;20.85;;;;;;;;;;5058394;28;20517;-69
2023/01/25 07:34:39;;;;;;;38.58;21.17;;;;;;;;;;5062159;28;20130;-69
2023/01/25 07:37:06;;;;;;;41.67;22.00;;;;;;;;;;5066715;28;20574;-70
2023/01/25 07:39:32;;;;;;;40.40;21.13;;;;;;;;;;5063509;28;20344;-70
2023/01/25 07:41:58;;;;;;;39.17;19.30;;;;;;;;;;5051514;28;20049;-71
2023/01/25 07:44:25;;;;;;;36.90;19.77;;;;;;;;;;5061427;28;20207;-70
2023/01/25 07:46:52;;;;;;;37.67;20.52;;;;;;;;;;5062999;28;20148;-70
2023/01/25 07:49:18;;;;;;;39.47;20.77;;;;;;;;;;5060196;28;20506;-69
2023/01/25 07:51:45;;;;;;;38.20;19.50;;;;;;;;;;5049048;28;20048;-71
2023/01/25 07:54:11;;;;;;;41.70;22.25;;;;;;;;;;5062586;28;20072;-69
2023/01/25 07:56:39;;;;;;;39.08;21.27;;;;;;;;;;5059435;28;20057;-72
2023/01/25 07:59:08;;;;;;;39.17;21.27;;;;;;;;;;5055670;28;20846;-73
2023/01/25 08:01:35;;;;;;;36.50;20.45;;;;;;;;;;5052380;28;20050;-72
2023/01/25 08:04:03;;;;;;;35.80;19.63;;;;;;;;;;5045669;28;20069;-69
2023/01/25 08:06:33;;;;;;;37.00;21.52;;;;;;;;;;5052952;28;20134;-72
2023/01/25 08:09:00;;;;;;;41.58;22.10;;;;;;;;;;5056069;28;20056;-70
2023/01/25 08:11:27;;;;;;;41.15;21.17;;;;;;;;;;5054001;28;20376;-70
2023/01/25 08:13:54;;;;;;;40.67;20.70;;;;;;;;;;5055583;28;20072;-72
2023/01/25 08:16:22;;;;;;;44.50;22.50;;;;;;;;;;5059006;28;20513;-69
2023/01/25 08:18:49;;;;;;;39.15;21.33;;;;;;;;;;5073309;28;20144;-72
2023/01/25 08:21:16;;;;;;;39.70;20.45;;;;;;;;;;5058340;28;20099;-71
2023/01/25 08:23:42;;;;;;;40.90;22.25;;;;;;;;;;5056004;28;20134;-72
2023/01/25 08:26:11;;;;;;;40.53;22.23;;;;;;;;;;5044977;28;20049;-68
2023/01/25 08:28:37;;;;;;;41.45;21.15;;;;;;;;;;5060341;28;21168;-71
2023/01/25 08:31:08;;;;;;;36.38;20.48;;;;;;;;;;5049380;28;20053;-70
2023/01/25 08:33:35;;;;;;;43.38;23.33;;;;;;;;;;5056897;28;20048;-71
2023/01/25 08:36:01;;;;;;;41.30;21.55;;;;;;;;;;5051508;28;20052;-71
2023/01/25 08:38:28;;;;;;;44.13;23.10;;;;;;;;;;5057890;28;20562;-71
2023/01/25 08:40:54;;;;;;;52.35;22.42;;;;;;;;;;5067398;28;20487;-72
2023/01/25 08:43:21;;;;;;;42.60;22.83;;;;;;;;;;5058914;28;20427;-69
2023/01/25 08:45:54;;;;;;;42.80;21.25;;;;;;;;;;5055710;28;20061;-72
2023/01/25 08:48:21;;;;;;;45.03;21.35;;;;;;;;;;5059319;28;20777;-70
2023/01/25 08:50:47;;;;;;;45.40;22.52;;;;;;;;;;5057858;28;20472;-70
2023/01/25 08:53:14;;;;;;;42.45;21.15;;;;;;;;;;5059383;28;20057;-72
2023/01/25 08:55:41;;;;;;;43.67;22.92;;;;;;;;;;5065980;28;20056;-69
2023/01/25 08:58:12;;;;;;;46.13;22.63;;;;;;;;;;5049000;28;20079;-71
2023/01/25 09:00:38;;;;;;;40.25;21.50;;;;;;;;;;5056328;28;20060;-70
2023/01/25 09:03:09;;;;;;;47.85;23.33;;;;;;;;;;5050229;28;20592;-71
2023/01/25 09:05:36;;;;;;;46.05;23.85;;;;;;;;;;5048566;28;20053;-69
2023/01/25 09:08:05;;;;;;;42.15;22.42;;;;;;;;;;5056723;28;20489;-71
2023/01/25 09:10:33;;;;;;;55.60;23.63;;;;;;;;;;5057134;28;20095;-71
2023/01/25 09:12:59;;;;;;;46.67;22.10;;;;;;;;;;5061313;28;20052;-68
2023/01/25 09:15:26;;;;;;;47.10;23.38;;;;;;;;;;5058867;28;20143;-70
2023/01/25 09:17:53;;;;;;;44.63;22.45;;;;;;;;;;5049201;28;20056;-69
2023/01/25 09:20:20;;;;;;;46.05;23.05;;;;;;;;;;5053312;28;20048;-71
2023/01/25 09:22:47;;;;;;;41.42;21.58;;;;;;;;;;5049900;28;20059;-67
2023/01/25 09:25:13;;;;;;;49.65;23.88;;;;;;;;;;5059470;28;20513;-69
2023/01/25 09:27:40;;;;;;;45.35;22.85;;;;;;;;;;5056939;28;20106;-69
2023/01/25 09:30:09;;;;;;;41.35;22.10;;;;;;;;;;5067166;28;20053;-69
2023/01/25 09:32:43;;;;;;;45.03;22.25;;;;;;;;;;5067404;28;20498;-72
2023/01/25 09:35:10;;;;;;;43.75;22.60;;;;;;;;;;5060343;28;20111;-72
2023/01/25 09:37:37;;;;;;;45.75;22.65;;;;;;;;;;5063436;28;20424;-73
2023/01/25 09:40:05;;;;;;;43.80;22.33;;;;;;;;;;5062453;28;20053;-73
2023/01/25 09:42:42;;;;;;;44.90;22.30;;;;;;;;;;5059437;28;20136;-70
2023/01/25 09:45:21;;;;;;;47.03;24.20;;;;;;;;;;5061779;28;20045;-73
2023/01/25 09:47:58;;;;;;;47.53;22.88;;;;;;;;;;5058570;28;20068;-71
2023/01/25 09:50:30;;;;;;;48.17;23.27;;;;;;;;;;5062537;28;20126;-69
2023/01/25 09:53:02;;;;;;;44.60;23.00;;;;;;;;;;5065941;28;20489;-72
2023/01/25 09:55:30;;;;;;;41.55;22.08;;;;;;;;;;5057934;28;20063;-71
2023/01/25 09:57:59;;;;;;;47.30;22.83;;;;;;;;;;5068599;28;20450;-69
2023/01/25 10:00:30;;;;;;;45.10;22.48;;;;;;;;;;5063078;28;20569;-72
2023/01/25 10:03:00;;;;;;;50.25;24.05;;;;;;;;;;5059548;28;20049;-68
2023/01/25 10:05:29;;;;;;;47.75;24.13;;;;;;;;;;5058937;28;20052;-72
2023/01/25 10:08:10;;;;;;;48.67;25.08;;;;;;;;;;5049949;28;20049;-70
2023/01/25 10:10:41;;;;;;;48.03;24.88;;;;;;;;;;5065551;28;20537;-72
2023/01/25 10:13:12;;;;;;;51.17;23.73;;;;;;;;;;5065472;28;20067;-73
2023/01/25 10:16:00;;;;;;;49.85;26.35;;;;;;;;;;5070112;28;20054;-70
2023/01/25 10:18:47;;;;;;;54.42;24.52;;;;;;;;;;5059503;28;20496;-68
2023/01/25 10:21:34;;;;;;;51.85;25.85;;;;;;;;;;5064218;28;20097;-72
2023/01/25 10:24:12;;;;;;;54.15;25.90;;;;;;;;;;5071360;28;20207;-71
2023/01/25 10:26:41;;;;;;;49.10;24.23;;;;;;;;;;5074691;28;20521;-70
2023/01/25 10:29:10;;;;;;;53.05;24.20;;;;;;;;;;5078295;28;20049;-69
2023/01/25 10:31:49;;;;;;;46.25;24.20;;;;;;;;;;5066992;28;20064;-70
2023/01/25 10:34:17;;;;;;;46.13;25.05;;;;;;;;;;5070534;28;20056;-72
2023/01/25 10:36:45;;;;;;;50.60;23.00;;;;;;;;;;5070222;28;20053;-68
2023/01/25 10:39:12;;;;;;;49.28;24.50;;;;;;;;;;5062675;28;20433;-70
2023/01/25 10:41:40;;;;;;;49.20;25.00;;;;;;;;;;5072109;28;20048;-71
2023/01/25 10:44:23;;;;;;;52.17;26.42;;;;;;;;;;5063450;28;20052;-70
2023/01/25 10:46:52;;;;;;;56.92;25.85;;;;;;;;;;5063785;28;20049;-70
2023/01/25 10:49:18;;;;;;;51.63;24.90;;;;;;;;;;5066889;28;20503;-70
2023/01/25 10:51:45;;;;;;;55.10;25.95;;;;;;;;;;5073658;28;20464;-72
2023/01/25 10:54:14;;;;;;;51.15;26.20;;;;;;;;;;5064128;28;20045;-68
2023/01/25 10:56:41;;;;;;;57.08;26.75;;;;;;;;;;5056544;28;20471;-71
2023/01/25 10:59:14;;;;;;;53.42;25.25;;;;;;;;;;5064326;28;20053;-69
2023/01/25 11:01:40;;;;;;;53.03;24.33;;;;;;;;;;5057997;28;20045;-72
2023/01/25 11:04:24;;;;;;;49.92;24.95;;;;;;;;;;5068318;28;20083;-69
2023/01/25 11:06:51;;;;;;;48.53;23.88;;;;;;;;;;5061911;28;20499;-71
2023/01/25 11:09:20;;;;;;;54.17;26.05;;;;;;;;;;5064994;28;20049;-71
2023/01/25 11:11:56;;;;;;;53.33;24.08;;;;;;;;;;5061583;28;20065;-68
2023/01/25 11:14:26;;;;;;;46.53;23.83;;;;;;;;;;5064096;28;20056;-70
2023/01/25 11:16:54;;;;;;;50.35;24.23;;;;;;;;;;5063204;28;20060;-71
2023/01/25 11:19:34;;;;;;;54.90;24.17;;;;;;;;;;5063768;28;20527;-70
2023/01/25 11:22:01;;;;;;;53.05;26.13;;;;;;;;;;5061855;28;20057;-74
2023/01/25 11:24:28;;;;;;;48.47;23.30;;;;;;;;;;5067532;28;20083;-73
2023/01/25 11:27:14;;;;;;;51.15;23.73;;;;;;;;;;5074903;28;20049;-72
2023/01/25 11:29:40;;;;;;;46.60;23.17;;;;;;;;;;5062405;28;20053;-72
2023/01/25 11:32:20;;;;;;;53.42;24.60;;;;;;;;;;5063220;28;20311;-70
2023/01/25 11:34:50;;;;;;;47.17;23.63;;;;;;;;;;5060492;28;20060;-73
2023/01/25 11:37:17;;;;;;;49.95;22.20;;;;;;;;;;5061288;28;20076;-73
2023/01/25 11:39:43;;;;;;;52.88;23.70;;;;;;;;;;5063324;28;20049;-70
2023/01/25 11:42:26;;;;;;;52.25;25.23;;;;;;;;;;5061425;28;20064;-72
2023/01/25 11:44:55;;;;;;;50.72;23.80;;;;;;;;;;5068748;28;20080;-71
2023/01/25 11:47:40;;;;;;;48.65;22.92;;;;;;;;;;5068591;28;20139;-73
2023/01/25 11:50:13;;;;;;;46.40;22.15;;;;;;;;;;5057754;28;20087;-69
2023/01/25 11:52:57;;;;;;;49.13;22.40;;;;;;;;;;5058471;28;20049;-73
2023/01/25 11:55:27;;;;;;;55.17;24.00;;;;;;;;;;5068043;28;20049;-70
2023/01/25 11:58:06;;;;;;;47.85;22.48;;;;;;;;;;5071649;28;20059;-72
2023/01/25 12:00:47;;;;;;;46.83;21.80;;;;;;;;;;5061895;28;20139;-69
2023/01/25 12:03:22;;;;;;;48.20;22.20;;;;;;;;;;5060895;28;20049;-69
2023/01/25 12:05:52;;;;;;;46.83;21.35;;;;;;;;;;5063056;28;20049;-73
2023/01/25 12:08:27;;;;;;;47.55;23.30;;;;;;;;;;5065861;28;20223;-69
2023/01/25 12:11:02;;;;;;;49.40;24.75;;;;;;;;;;5072833;28;20068;-69
2023/01/25 12:13:39;;;;;;;50.60;24.13;;;;;;;;;;5061452;28;20132;-70
2023/01/25 12:16:14;;;;;;;52.65;24.90;;;;;;;;;;5062779;28;20079;-73
2023/01/25 12:18:59;;;;;;;50.70;24.50;;;;;;;;;;5065025;28;20228;-73
2023/01/25 12:21:34;;;;;;;50.38;23.17;;;;;;;;;;5069939;28;20056;-69
2023/01/25 12:24:00;;;;;;;;;;;;;;;;;;5063258;28;20056;-74
2023/01/25 12:26:28;;;;;;;49.70;22.73;;;;;;;;;;5072838;28;44212;-71
2023/01/25 12:29:13;;;;;;;46.75;22.08;;;;;;;;;;5066614;28;20076;-72
2023/01/25 12:31:42;;;;;;;50.00;23.70;;;;;;;;;;5061892;28;20072;-73
2023/01/25 12:34:18;;;;;;;48.53;23.65;;;;;;;;;;5057812;28;20284;-73
2023/01/25 12:36:47;;;;;;;47.78;22.90;;;;;;;;;;5061909;28;20734;-73
2023/01/25 12:39:19;;;;;;;50.65;24.00;;;;;;;;;;5062185;28;20527;-70
2023/01/25 12:42:04;;;;;;;56.20;24.33;;;;;;;;;;5065202;28;20469;-72
2023/01/25 12:44:42;;;;;;;50.17;23.17;;;;;;;;;;5071931;28;20537;-73
2023/01/25 12:47:11;;;;;;;48.55;23.33;;;;;;;;;;5056096;28;20053;-71
2023/01/25 12:49:43;;;;;;;56.10;27.17;;;;;;;;;;5061434;28;20052;-74
2023/01/25 12:52:48;;;;;;;47.30;22.98;;;;;;;;;;5069036;28;20423;-72
2023/01/25 12:55:16;;;;;;;46.70;21.90;;;;;;;;;;5014754;28;20125;-70
2023/01/25 12:57:49;;;;;;;50.17;24.13;;;;;;;;;;5020958;28;20061;-69
2023/01/25 13:00:24;;;;;;;50.83;23.00;;;;;;;;;;5017947;28;20089;-71
2023/01/25 13:03:06;;;;;;;53.50;26.50;;;;;;;;;;5017826;28;20102;-71
2023/01/25 13:05:51;;;;;;;53.97;25.30;;;;;;;;;;5007071;28;22225;-70
2023/01/25 13:08:20;;;;;;;45.65;22.65;;;;;;;;;;5007737;28;20627;-70
2023/01/25 13:11:02;;;;;;;43.13;21.90;;;;;;;;;;5018548;28;20551;-70
2023/01/25 13:13:29;;;;;;;43.72;20.92;;;;;;;;;;5009586;28;20368;-72
2023/01/25 13:15:55;;;;;;;47.50;22.95;;;;;;;;;;5017972;28;20510;-71
2023/01/25 13:18:27;;;;;;;46.22;22.77;;;;;;;;;;5026150;28;20760;-69
2023/01/25 13:20:57;;;;;;;49.95;25.23;;;;;;;;;;5011910;28;20140;-72
2023/01/25 13:23:31;;;;;;;49.50;22.92;;;;;;;;;;5016620;28;20152;-68
2023/01/25 13:26:17;;;;;;;48.90;22.92;;;;;;;;;;5038347;28;20057;-71
2023/01/25 13:28:47;;;;;;;51.23;23.73;;;;;;;;;;5057221;28;20431;-71
2023/01/25 13:31:32;;;;;;;45.42;21.48;;;;;;;;;;5064133;28;20060;-72
2023/01/25 13:34:34;;;;;;;45.08;20.50;;;;;;;;;;5065096;28;20346;-70
2023/01/25 13:37:01;;;;;;;46.38;21.38;;;;;;;;;;5063610;28;20144;-72
2023/01/25 13:39:28;;;;;;;49.63;22.35;;;;;;;;;;5057401;28;20371;-70
2023/01/25 13:42:04;;;;;;;46.80;23.63;;;;;;;;;;5059911;28;20053;-68
2023/01/25 13:44:33;;;;;;;49.95;22.67;;;;;;;;;;5058154;28;20479;-71
2023/01/25 13:47:01;;;;;;;46.88;21.33;;;;;;;;;;5060519;28;20056;-68
2023/01/25 13:49:54;;;;;;;51.13;23.13;;;;;;;;;;5054520;28;20546;-71
2023/01/25 13:52:22;;;;;;;42.25;21.08;;;;;;;;;;5060536;28;20056;-70
2023/01/25 13:54:50;;;;;;;47.85;22.63;;;;;;;;;;5060373;28;20056;-68
2023/01/25 13:57:21;;;;;;;46.40;21.30;;;;;;;;;;5060005;28;20053;-71
2023/01/25 13:59:56;;;;;;;46.30;22.42;;;;;;;;;;5060962;28;20053;-71
2023/01/25 14:02:31;;;;;;;51.72;24.20;;;;;;;;;;5072046;28;20144;-71
2023/01/25 14:04:58;;;;;;;46.60;21.60;;;;;;;;;;5061255;28;20051;-70
2023/01/25 14:07:31;;;;;;;48.72;22.95;;;;;;;;;;5055034;28;20106;-70
2023/01/25 14:09:59;;;;;;;45.67;22.30;;;;;;;;;;5065693;28;20046;-70
2023/01/25 14:12:30;;;;;;;51.40;24.23;;;;;;;;;;5062818;28;20056;-68
2023/01/25 14:14:57;;;;;;;51.95;24.08;;;;;;;;;;5065237;28;20049;-69
2023/01/25 14:17:23;;;;;;;52.10;23.95;;;;;;;;;;5048901;28;20053;-67
2023/01/25 14:19:52;;;;;;;52.03;24.10;;;;;;;;;;5062074;28;20053;-73
2023/01/25 14:22:20;;;;;;;55.05;24.70;;;;;;;;;;5062858;28;20486;-70
2023/01/25 14:25:02;;;;;;;53.08;24.10;;;;;;;;;;5064172;28;20057;-68
2023/01/25 14:27:29;;;;;;;46.65;23.63;;;;;;;;;;5060664;28;20735;-71
2023/01/25 14:29:56;;;;;;;60.60;26.65;;;;;;;;;;5066787;28;20045;-70